createdAt,value
2022-08-11T00:15:52.447Z,98883.97
2022-08-11T00:35:57.625Z,98873.75
2022-08-11T00:56:00.831Z,98868.13
2022-08-11T01:16:03.560Z,98865.91
2022-08-11T01:36:06.041Z,98861.97
2022-08-11T01:56:10.086Z,98843.88
2022-08-11T02:16:12.888Z,98848.69
2022-08-11T02:36:16.012Z,98844.38
2022-08-11T02:56:18.797Z,98855.44
2022-08-11T03:16:40.118Z,98860.19
2022-08-11T03:37:15.222Z,98854.31
2022-08-11T03:57:11.267Z,98865.87
2022-08-11T04:17:13.708Z,98856.09
2022-08-11T04:37:36.031Z,98855.22
2022-08-11T04:57:57.464Z,98857.37
2022-08-11T05:18:20.513Z,98852.81
2022-08-11T05:38:41.509Z,98855.91
2022-08-11T05:58:44.061Z,98853.50
2022-08-11T06:18:46.533Z,98872.25
2022-08-11T06:38:49.403Z,98878.88
2022-08-11T06:59:10.745Z,98885.09
2022-08-11T07:19:31.915Z,98879.87
2022-08-11T07:39:34.506Z,98872.00
2022-08-11T07:59:59.928Z,98874.47
2022-08-11T08:20:05.067Z,98881.50
2022-08-11T08:40:07.543Z,98880.34
2022-08-11T09:00:13.051Z,98853.75
2022-08-11T09:20:17.668Z,98851.50
2022-08-11T09:40:32.663Z,98838.69
2022-08-11T10:00:38.427Z,98808.56
2022-08-11T10:20:40.955Z,98815.62
2022-08-11T10:40:43.789Z,98805.56
2022-08-11T11:00:46.276Z,98772.81
2022-08-11T11:20:48.804Z,98737.31
2022-08-11T11:41:11.258Z,98715.81
2022-08-11T12:01:26.556Z,98715.22
2022-08-11T12:21:30.187Z,98686.53
2022-08-11T12:41:51.910Z,98680.16
2022-08-11T13:02:13.715Z,98643.84
2022-08-11T13:22:16.300Z,98642.28
2022-08-11T13:42:21.313Z,98629.69
2022-08-11T14:02:28.291Z,98696.31
2022-08-11T14:22:32.265Z,98736.09
2022-08-11T14:42:53.936Z,98738.91
2022-08-11T15:03:12.040Z,98703.91
2022-08-11T15:23:33.896Z,98713.66
2022-08-11T15:43:55.218Z,98717.12
2022-08-11T16:04:13.229Z,98704.19
2022-08-11T16:27:01.681Z,98708.47
2022-08-11T16:44:57.041Z,98695.97
2022-08-11T17:05:18.367Z,98671.44
2022-08-11T17:25:20.794Z,98673.84
2022-08-11T17:45:42.109Z,98662.00
2022-08-11T18:05:44.863Z,98663.28
2022-08-11T18:26:07.240Z,98674.59
2022-08-11T18:46:29.218Z,98672.88
2022-08-11T19:06:51.263Z,98692.91
2022-08-11T19:27:12.675Z,98707.28
2022-08-11T19:47:34.126Z,98710.53
2022-08-11T20:07:55.490Z,98707.63
2022-08-11T20:28:16.373Z,98683.03
2022-08-11T20:48:37.751Z,98671.75
2022-08-11T21:08:59.490Z,98679.56
2022-08-11T22:11:31.501Z,98687.56
2022-08-11T22:31:18.963Z,98700.34
2022-08-11T22:51:40.506Z,98707.69
2022-08-11T23:12:07.230Z,98694.09
2022-08-11T23:32:31.139Z,98697.41
2022-08-11T23:52:52.551Z,98675.84
